Time;durP1;ratioP1;P1;durP2;ratioP2;P2;SDS_P1;SDS_P2;PMS_P1;PMS_P2;Temp;Humidity;BMP_temperature;BMP_pressure;BME280_temperature;BME280_humidity;BME280_pressure;Samples;Min_cycle;Max_cycle;Signal;HPM_P1;HPM_P2
2021/07/18 00:00:48;;;;;;;30.77;19.77;;;;;;;22.23;60.37;99113.69;4376630;32;20145;-87
2021/07/18 00:03:13;;;;;;;30.20;17.95;;;;;;;22.20;60.37;99109.50;4376881;32;20103;-88
2021/07/18 00:05:39;;;;;;;27.95;18.92;;;;;;;22.27;60.38;99109.81;4350768;32;20146;-89
2021/07/18 00:08:05;;;;;;;25.20;18.73;;;;;;;22.35;60.38;99099.34;4362469;32;24481;-88
2021/07/18 00:10:30;;;;;;;22.17;17.85;;;;;;;22.25;60.37;99103.81;4363056;32;20121;-89
2021/07/18 00:12:56;;;;;;;25.85;17.92;;;;;;;22.23;60.37;99103.94;4362877;32;20087;-88
2021/07/18 00:15:21;;;;;;;23.27;19.20;;;;;;;22.23;60.37;99100.44;4350417;32;20464;-88
2021/07/18 00:17:46;;;;;;;26.17;17.85;;;;;;;22.23;60.37;99090.66;4376689;32;20186;-89
2021/07/18 00:20:12;;;;;;;25.92;19.48;;;;;;;22.27;60.38;99094.75;4350387;32;20653;-88
2021/07/18 00:22:38;;;;;;;25.65;18.92;;;;;;;22.40;60.38;99094.44;4350626;32;20500;-88
2021/07/18 00:25:05;;;;;;;29.87;18.50;;;;;;;22.30;60.37;99093.63;4365806;32;20098;-88
2021/07/18 00:27:30;;;;;;;26.02;17.60;;;;;;;22.39;60.38;99099.91;4357737;32;20086;-87
2021/07/18 00:29:55;;;;;;;30.08;18.02;;;;;;;22.40;60.38;99096.25;4369200;32;22600;-88
2021/07/18 00:32:21;;;;;;;24.35;18.87;;;;;;;22.31;60.37;99096.13;4350751;32;20503;-89
2021/07/18 00:34:46;;;;;;;23.20;18.75;;;;;;;22.34;60.39;99101.16;4350763;32;22493;-89
2021/07/18 00:37:12;;;;;;;25.95;18.33;;;;;;;22.28;60.38;99098.22;4377942;32;20133;-88
2021/07/18 00:39:37;;;;;;;22.95;18.58;;;;;;;22.38;60.38;99091.09;4363817;32;20091;-89
2021/07/18 00:42:03;;;;;;;28.30;18.92;;;;;;;22.28;60.38;99082.31;4375258;32;20152;-89
2021/07/18 00:44:28;;;;;;;23.73;18.05;;;;;;;22.11;60.37;99091.78;4362738;32;20102;-89
2021/07/18 00:46:54;;;;;;;26.30;18.73;;;;;;;22.34;60.38;99089.72;4362561;32;20094;-88
2021/07/18 00:49:19;;;;;;;29.17;18.35;;;;;;;22.26;60.37;99084.28;4376133;32;22896;-88
2021/07/18 00:51:45;;;;;;;29.17;18.95;;;;;;;22.30;60.37;99085.66;4362329;32;21234;-87
2021/07/18 00:54:10;;;;;;;23.98;19.40;;;;;;;22.24;60.37;99087.06;4376461;32;20118;-87
2021/07/18 00:56:35;;;;;;;26.65;19.83;;;;;;;22.39;60.38;99081.34;4362740;32;20126;-88
2021/07/18 00:59:01;;;;;;;29.52;20.17;;;;;;;22.48;60.39;99080.50;4349687;32;21823;-89
2021/07/18 01:01:27;;;;;;;29.12;18.92;;;;;;;22.49;60.38;99085.66;4349693;32;22394;-89
2021/07/18 01:03:52;;;;;;;26.77;19.52;;;;;;;22.40;60.38;99085.66;4362793;32;20498;-89
2021/07/18 01:06:18;;;;;;;26.48;18.17;;;;;;;22.41;60.38;99089.97;4376378;32;20106;-88
2021/07/18 01:08:43;;;;;;;24.20;18.45;;;;;;;22.53;60.39;99083.56;4362556;32;20156;-87
2021/07/18 01:11:09;;;;;;;22.17;17.67;;;;;;;22.50;60.38;99086.50;4376462;32;20153;-88
2021/07/18 01:13:34;;;;;;;25.15;18.45;;;;;;;22.58;60.40;99083.97;4362095;32;20180;-90
2021/07/18 01:16:00;;;;;;;22.95;18.33;;;;;;;22.60;60.39;99071.41;4350102;32;20169;-89
2021/07/18 01:18:25;;;;;;;25.77;18.27;;;;;;;22.71;60.40;99065.94;4349631;32;23098;-89
2021/07/18 01:20:51;;;;;;;23.87;19.62;;;;;;;22.53;60.39;99075.62;4349948;32;20182;-89
2021/07/18 01:23:16;;;;;;;28.83;19.52;;;;;;;22.52;60.39;99077.44;4362077;32;20157;-88
2021/07/18 01:25:41;;;;;;;27.35;18.85;;;;;;;22.70;60.40;99077.53;4349910;32;20128;-89
2021/07/18 01:28:09;;;;;;;22.87;18.90;;;;;;;22.85;60.40;99073.47;4351000;32;20175;-88
2021/07/18 01:30:34;;;;;;;27.33;18.50;;;;;;;22.66;60.40;99070.84;4351869;32;20137;-89
2021/07/18 01:33:00;;;;;;;22.65;18.95;;;;;;;22.62;60.39;99074.75;4377842;32;20433;-89
2021/07/18 01:35:27;;;;;;;28.27;18.85;;;;;;;22.76;60.40;99076.97;4363958;32;20189;-88
2021/07/18 01:37:52;;;;;;;31.42;18.20;;;;;;;22.79;60.40;99084.66;4377883;32;20617;-88
2021/07/18 01:40:18;;;;;;;21.42;18.10;;;;;;;22.59;60.40;99130.75;4363616;32;25151;-87
2021/07/18 01:42:43;;;;;;;21.10;16.30;;;;;;;22.60;60.39;99116.50;4378113;32;20102;-88
2021/07/18 01:45:09;;;;;;;21.25;15.63;;;;;;;22.77;60.40;99072.50;4364497;32;20091;-88
2021/07/18 01:47:34;;;;;;;22.05;16.37;;;;;;;22.80;60.40;99094.28;4364364;32;20129;-88
2021/07/18 01:50:00;;;;;;;17.90;15.63;;;;;;;22.87;60.40;99113.97;4364280;32;20460;-88
2021/07/18 01:52:25;;;;;;;19.20;15.50;;;;;;;22.96;60.42;99129.06;4351396;32;21086;-87
2021/07/18 01:54:54;;;;;;;24.17;15.15;;;;;;;22.97;60.42;99119.28;4375910;32;28559;-87
2021/07/18 01:57:19;;;;;;;23.85;16.70;;;;;;;23.09;60.42;99125.25;4377778;32;20473;-88
2021/07/18 01:59:45;;;;;;;21.20;16.50;;;;;;;23.17;60.42;99126.19;4363123;32;33710;-87
2021/07/18 02:02:13;;;;;;;23.92;16.70;;;;;;;23.07;60.42;99124.56;4376377;32;20150;-88
2021/07/18 02:04:38;;;;;;;23.83;17.50;;;;;;;23.02;60.41;99105.59;4351638;32;20510;-88
2021/07/18 02:07:04;;;;;;;23.38;16.23;;;;;;;22.87;60.40;99124.59;4377630;32;20221;-88
2021/07/18 02:09:29;;;;;;;21.92;16.67;;;;;;;23.14;60.42;99133.63;4377672;32;20544;-87
2021/07/18 02:11:55;;;;;;;21.67;17.42;;;;;;;23.21;60.42;99124.13;4363960;32;20099;-86
2021/07/18 02:14:22;;;;;;;24.55;17.77;;;;;;;23.13;60.43;99094.78;4363210;32;27998;-88
2021/07/18 02:16:49;;;;;;;22.20;16.65;;;;;;;23.14;60.42;99110.56;4363653;32;20133;-88
2021/07/18 02:19:15;;;;;;;24.73;17.75;;;;;;;23.16;60.42;99129.84;4352057;32;20148;-88
2021/07/18 02:21:40;;;;;;;24.20;17.50;;;;;;;23.19;60.42;99120.78;4363309;32;28110;-87
2021/07/18 02:24:06;;;;;;;23.67;17.90;;;;;;;23.27;60.42;99104.94;4363860;32;20422;-89
2021/07/18 02:26:32;;;;;;;27.30;18.37;;;;;;;23.24;60.43;99086.66;4351317;32;20455;-88
2021/07/18 02:28:57;;;;;;;25.95;18.98;;;;;;;23.06;60.42;99097.19;4362948;32;30124;-88
2021/07/18 02:31:23;;;;;;;24.73;18.10;;;;;;;22.99;60.41;99124.47;4377411;32;20099;-88
2021/07/18 02:33:48;;;;;;;24.08;17.52;;;;;;;22.92;60.41;99130.31;4377561;32;20138;-88
2021/07/18 02:36:14;;;;;;;24.95;19.50;;;;;;;22.83;60.40;99106.44;4351195;32;20945;-88
2021/07/18 02:38:39;;;;;;;22.10;18.40;;;;;;;23.02;60.41;99094.97;4350959;32;20151;-87
2021/07/18 02:41:04;;;;;;;24.70;18.80;;;;;;;22.90;60.41;99102.25;4350891;32;20130;-87
2021/07/18 02:43:30;;;;;;;28.10;18.67;;;;;;;22.85;60.40;99101.84;4363611;32;20157;-87
2021/07/18 02:45:55;;;;;;;27.27;19.80;;;;;;;22.85;60.40;99099.19;4363570;32;20146;-88
2021/07/18 02:48:21;;;;;;;26.55;20.33;;;;;;;22.83;60.40;99101.16;4350595;32;32555;-88
2021/07/18 02:50:46;;;;;;;27.00;21.45;;;;;;;23.00;60.41;99088.97;4350497;32;30065;-88
2021/07/18 02:53:12;;;;;;;27.30;19.75;;;;;;;22.75;60.40;99093.87;4363584;32;20816;-86
2021/07/18 02:55:37;;;;;;;26.83;19.77;;;;;;;22.79;60.40;99099.72;4363246;32;20445;-87
2021/07/18 02:58:02;;;;;;;24.92;19.02;;;;;;;22.72;60.40;99099.47;4362766;32;31996;-87
2021/07/18 03:00:28;;;;;;;29.15;20.45;;;;;;;22.85;60.41;99097.38;4377305;32;20090;-86
2021/07/18 03:02:54;;;;;;;23.85;19.20;;;;;;;22.87;60.40;99092.75;4363112;32;23484;-87
2021/07/18 03:05:19;;;;;;;29.52;19.00;;;;;;;22.82;60.40;99097.66;4377436;32;20125;-87
2021/07/18 03:07:45;;;;;;;28.12;20.83;;;;;;;22.66;60.40;99118.59;4363071;32;29151;-87
2021/07/18 03:10:11;;;;;;;24.85;19.15;;;;;;;22.60;60.40;99132.41;4363724;32;20098;-87
2021/07/18 03:12:37;;;;;;;29.40;21.95;;;;;;;22.66;60.40;99122.06;4351442;32;20099;-88
2021/07/18 03:15:06;;;;;;;25.45;19.73;;;;;;;22.55;60.39;99137.31;4351248;32;20117;-89
2021/07/18 03:17:32;;;;;;;35.72;22.35;;;;;;;22.57;60.38;99140.66;4351572;32;20107;-89
2021/07/18 03:20:02;;;;;;;34.47;23.23;;;;;;;22.49;60.38;99127.28;4376702;32;29044;-89
2021/07/18 03:22:27;;;;;;;33.53;23.30;;;;;;;22.32;60.38;99129.63;4377415;32;20166;-89
2021/07/18 03:24:53;;;;;;;36.38;25.27;;;;;;;22.36;60.39;99124.87;4363627;32;20430;-89
2021/07/18 03:27:18;;;;;;;34.15;25.40;;;;;;;22.44;60.38;99132.13;4350982;32;20151;-88
2021/07/18 03:29:44;;;;;;;32.85;25.00;;;;;;;22.46;60.38;99143.44;4350168;32;34896;-88
2021/07/18 03:32:09;;;;;;;39.55;24.52;;;;;;;22.26;60.38;99140.78;4363322;32;20429;-88
2021/07/18 03:34:34;;;;;;;32.92;24.02;;;;;;;22.26;60.38;99151.41;4375281;32;23447;-88
2021/07/18 03:37:00;;;;;;;34.17;22.75;;;;;;;22.30;60.37;99144.84;4381902;32;20112;-88
2021/07/18 03:39:25;;;;;;;31.77;23.55;;;;;;;22.41;60.38;99133.25;4370552;32;20090;-88
2021/07/18 03:41:51;;;;;;;29.83;22.98;;;;;;;22.50;60.39;99143.03;4380781;32;26154;-88
2021/07/18 03:44:16;;;;;;;30.60;23.55;;;;;;;22.55;60.38;99146.09;4363206;32;24406;-88
2021/07/18 03:46:41;;;;;;;33.80;25.12;;;;;;;22.50;60.38;99144.84;4377175;32;20111;-88
2021/07/18 03:49:07;;;;;;;32.97;24.40;;;;;;;22.74;60.40;99147.09;4376191;32;20124;-88
2021/07/18 03:51:32;;;;;;;32.08;22.45;;;;;;;22.65;60.40;99157.53;4350358;32;20155;-87
2021/07/18 03:53:58;;;;;;;29.65;23.77;;;;;;;22.86;60.41;99149.47;4362865;32;20106;-87
2021/07/18 03:56:23;;;;;;;34.97;24.37;;;;;;;23.07;60.41;99143.16;4362871;32;20095;-88
2021/07/18 03:58:52;;;;;;;31.20;23.62;;;;;;;23.16;60.42;99135.16;4363050;32;20174;-88
2021/07/18 04:01:17;;;;;;;31.75;24.27;;;;;;;23.14;60.42;99149.53;4351066;32;20091;-87
2021/07/18 04:03:46;;;;;;;38.15;24.45;;;;;;;23.13;60.42;99143.41;4350823;32;20137;-88
2021/07/18 04:06:12;;;;;;;29.48;24.08;;;;;;;23.18;60.42;99149.13;4363584;32;20094;-89
2021/07/18 04:08:38;;;;;;;37.33;26.10;;;;;;;23.26;60.42;99156.38;4376973;32;20125;-88
2021/07/18 04:11:03;;;;;;;37.88;25.98;;;;;;;23.05;60.42;99161.88;4350800;32;20075;-88
2021/07/18 04:13:29;;;;;;;38.58;27.55;;;;;;;23.14;60.42;99168.97;4350457;32;22599;-90
2021/07/18 04:15:54;;;;;;;42.05;28.33;;;;;;;23.05;60.42;99169.84;4351162;32;20157;-90
2021/07/18 04:18:19;;;;;;;42.88;29.15;;;;;;;23.10;60.41;99180.03;4350739;32;20097;-90
2021/07/18 04:20:45;;;;;;;36.35;27.60;;;;;;;22.92;60.41;99178.09;4350632;32;20126;-90
2021/07/18 04:23:10;;;;;;;39.88;27.27;;;;;;;22.99;60.41;99196.13;4362418;32;28473;-89
2021/07/18 04:25:36;;;;;;;42.08;28.10;;;;;;;22.75;60.40;99188.56;4376715;32;20140;-87
2021/07/18 04:28:01;;;;;;;35.55;27.15;;;;;;;22.66;60.40;99182.25;4375401;32;20112;-87
2021/07/18 04:30:27;;;;;;;35.78;26.35;;;;;;;22.95;60.40;99179.66;4376099;32;25111;-86
2021/07/18 04:32:52;;;;;;;35.50;27.13;;;;;;;22.91;60.41;99175.56;4362824;32;20360;-88
2021/07/18 04:35:18;;;;;;;37.60;26.25;;;;;;;23.12;60.41;99178.06;4350354;32;20154;-88
2021/07/18 04:37:43;;;;;;;33.20;24.63;;;;;;;23.17;60.42;99170.50;4376499;32;20353;-88
2021/07/18 04:40:11;;;;;;;34.28;24.85;;;;;;;23.33;60.43;99170.75;4362798;32;20114;-88
2021/07/18 04:42:37;;;;;;;31.05;24.40;;;;;;;23.62;60.44;99167.19;4362894;32;20087;-88
2021/07/18 04:45:03;;;;;;;32.53;24.30;;;;;;;23.65;60.44;99172.19;4350685;32;20098;-88
2021/07/18 04:47:28;;;;;;;30.40;24.23;;;;;;;23.78;60.45;99175.38;4376539;32;20157;-87
2021/07/18 04:49:54;;;;;;;31.35;24.60;;;;;;;23.86;60.45;99172.81;4349782;32;27424;-87
2021/07/18 04:52:19;;;;;;;30.45;23.92;;;;;;;24.16;60.47;99171.69;4362889;32;20167;-88
2021/07/18 04:54:44;;;;;;;32.35;23.58;;;;;;;24.24;60.47;99184.22;4350380;32;20189;-87
2021/07/18 04:57:10;;;;;;;30.50;23.08;;;;;;;24.31;60.48;99182.66;4362289;32;20142;-87
2021/07/18 04:59:35;;;;;;;31.77;23.10;;;;;;;24.19;60.47;99190.84;4376395;32;20121;-87
2021/07/18 05:02:01;;;;;;;25.73;21.87;;;;;;;24.26;60.47;99190.22;4376135;32;20484;-88
2021/07/18 05:04:26;;;;;;;31.77;23.12;;;;;;;24.49;60.48;99189.69;4350061;32;20423;-87
2021/07/18 05:06:52;;;;;;;28.58;22.35;;;;;;;24.43;60.48;99192.13;4362542;32;20472;-87
2021/07/18 05:09:17;;;;;;;28.92;22.37;;;;;;;24.52;60.49;99193.84;4362137;32;20110;-88
2021/07/18 05:11:42;;;;;;;28.90;22.20;;;;;;;24.69;60.50;99201.00;4361904;32;27326;-88
2021/07/18 05:14:08;;;;;;;33.28;22.62;;;;;;;24.85;60.50;99204.81;4350010;32;20114;-88
2021/07/18 05:16:33;;;;;;;31.25;21.70;;;;;;;24.57;60.49;99201.37;4349646;32;20156;-88
2021/07/18 05:18:59;;;;;;;31.58;23.10;;;;;;;24.65;60.50;99196.16;4349775;32;20166;-88
2021/07/18 05:21:24;;;;;;;32.80;23.50;;;;;;;24.84;60.50;99193.31;4362580;32;20170;-88
2021/07/18 05:23:49;;;;;;;32.08;23.90;;;;;;;24.91;60.50;99194.38;4376180;32;20131;-85
2021/07/18 05:26:15;;;;;;;34.88;24.75;;;;;;;24.76;60.50;99198.56;4362242;32;20558;-88
2021/07/18 05:28:40;;;;;;;33.95;24.25;;;;;;;24.64;60.50;99202.47;4349897;32;20134;-88
2021/07/18 05:31:06;;;;;;;32.85;25.30;;;;;;;24.64;60.50;99197.97;4375793;32;20125;-88
2021/07/18 05:33:31;;;;;;;37.45;25.23;;;;;;;24.44;60.48;99188.47;4362005;32;20186;-87
2021/07/18 05:35:56;;;;;;;32.58;25.35;;;;;;;24.52;60.49;99191.19;4375353;32;29332;-88
2021/07/18 05:38:22;;;;;;;34.17;22.58;;;;;;;24.83;60.50;99190.81;4362342;32;20125;-88
2021/07/18 05:40:47;;;;;;;28.10;22.87;;;;;;;24.94;60.51;99183.44;4349684;32;20091;-87
2021/07/18 05:43:13;;;;;;;32.60;25.17;;;;;;;24.95;60.52;99184.25;4375482;32;20146;-87
2021/07/18 05:45:38;;;;;;;32.13;23.62;;;;;;;25.01;60.52;99189.84;4361774;32;20106;-88
2021/07/18 05:48:04;;;;;;;34.95;24.50;;;;;;;24.92;60.51;99192.56;4375356;32;22560;-87
2021/07/18 05:50:29;;;;;;;38.13;25.30;;;;;;;25.06;60.51;99194.69;4362355;32;20099;-87
2021/07/18 05:52:55;;;;;;;34.25;24.52;;;;;;;25.01;60.52;99189.84;4375602;32;20129;-86
2021/07/18 05:55:22;;;;;;;37.10;25.85;;;;;;;24.82;60.50;99189.97;4361871;32;20150;-85
2021/07/18 05:57:48;;;;;;;29.90;21.77;;;;;;;24.97;60.51;99184.94;4375638;32;20082;-88
2021/07/18 06:00:13;;;;;;;35.83;25.92;;;;;;;25.02;60.52;99174.69;4361477;32;20137;-88
2021/07/18 06:02:40;;;;;;;32.90;24.63;;;;;;;25.24;60.53;99182.19;4349353;32;20102;-88
2021/07/18 06:05:06;;;;;;;30.85;23.42;;;;;;;25.26;60.53;99182.84;4349525;32;20497;-87
2021/07/18 06:07:31;;;;;;;32.15;24.30;;;;;;;25.48;60.54;99186.81;4361466;32;20115;-87
2021/07/18 06:09:57;;;;;;;34.42;23.70;;;;;;;25.49;60.54;99193.00;4361320;32;20135;-86
2021/07/18 06:12:22;;;;;;;27.33;21.50;;;;;;;25.72;60.55;99195.97;4361257;32;20149;-86
2021/07/18 06:14:47;;;;;;;24.02;20.33;;;;;;;25.75;60.55;99193.81;4363642;32;20104;-86
2021/07/18 06:17:13;;;;;;;22.40;18.35;;;;;;;25.87;60.56;99199.72;4363408;32;20131;-86
2021/07/18 06:19:39;;;;;;;23.52;18.87;;;;;;;26.16;60.57;99196.66;4351392;32;20133;-86
2021/07/18 06:22:05;;;;;;;25.92;17.92;;;;;;;26.62;60.60;99192.63;4377391;32;20086;-86
2021/07/18 06:24:30;;;;;;;22.35;17.48;;;;;;;26.83;60.61;99193.00;4377489;32;20117;-86
2021/07/18 06:26:56;;;;;;;23.52;18.17;;;;;;;27.24;60.62;99200.19;4363383;32;20484;-87
2021/07/18 06:29:21;;;;;;;23.90;18.12;;;;;;;27.55;60.64;99194.94;4376910;32;21470;-86
2021/07/18 06:31:47;;;;;;;21.55;15.75;;;;;;;27.88;60.66;99185.00;4376791;32;21382;-86
2021/07/18 06:34:12;;;;;;;20.80;17.02;;;;;;;28.10;60.67;99186.91;4363492;32;20110;-86
2021/07/18 06:36:37;;;;;;;17.62;15.48;;;;;;;28.02;60.67;99193.16;4363263;32;20124;-87
2021/07/18 06:39:03;;;;;;;20.05;15.43;;;;;;;28.12;60.67;99187.56;4351093;32;20191;-86
2021/07/18 06:41:28;;;;;;;23.50;15.80;;;;;;;28.39;60.69;99195.16;4363471;32;20132;-86
2021/07/18 06:43:54;;;;;;;18.73;15.02;;;;;;;28.48;60.69;99187.06;4375907;32;20095;-86
2021/07/18 06:46:20;;;;;;;20.35;16.17;;;;;;;28.72;60.70;99189.59;4377196;32;20122;-87
2021/07/18 06:48:45;;;;;;;22.80;15.18;;;;;;;28.90;60.71;99190.16;4377095;32;20179;-87
2021/07/18 06:51:11;;;;;;;21.67;15.85;;;;;;;29.00;60.72;99198.75;4364279;32;20186;-86
2021/07/18 06:53:36;;;;;;;20.65;15.27;;;;;;;29.18;60.72;99197.59;4370141;32;20055;-86
2021/07/18 06:56:02;;;;;;;17.45;15.27;;;;;;;29.11;60.71;99202.03;4369726;32;20125;-87
2021/07/18 06:58:27;;;;;;;18.12;14.52;;;;;;;29.20;60.73;99200.94;4366213;32;20099;-86
2021/07/18 07:00:53;;;;;;;20.65;14.70;;;;;;;29.31;60.73;99203.16;4362868;32;20128;-86
2021/07/18 07:03:18;;;;;;;16.62;14.25;;;;;;;29.55;60.74;99199.44;4363211;32;20768;-86
2021/07/18 07:05:43;;;;;;;19.90;14.65;;;;;;;29.62;60.75;99209.25;4362694;32;21880;-88
2021/07/18 07:08:09;;;;;;;20.10;15.13;;;;;;;29.78;60.76;99213.59;4350266;32;32646;-88
2021/07/18 07:10:34;;;;;;;20.00;15.68;;;;;;;30.05;60.76;99203.25;4350819;32;20492;-88
2021/07/18 07:13:00;;;;;;;18.58;15.75;;;;;;;30.21;60.77;99205.72;4350896;32;20102;-87
2021/07/18 07:15:25;;;;;;;22.42;16.17;;;;;;;30.31;60.77;99200.06;4350998;32;20169;-89
2021/07/18 07:17:51;;;;;;;20.52;16.35;;;;;;;30.23;60.78;99212.56;4351078;32;20122;-89
2021/07/18 07:20:16;;;;;;;22.05;16.92;;;;;;;30.39;60.79;99213.38;4351156;32;20415;-87
2021/07/18 07:22:42;;;;;;;20.30;17.08;;;;;;;30.31;60.79;99214.31;4350982;32;20204;-89
2021/07/18 07:25:12;;;;;;;18.23;14.90;;;;;;;30.34;60.79;99216.63;4349931;32;20422;-88
2021/07/18 07:27:38;;;;;;;17.80;15.15;;;;;;;30.22;60.79;99216.25;4350828;32;20099;-91
2021/07/18 07:30:07;;;;;;;18.83;15.35;;;;;;;30.45;60.79;99229.56;4350667;32;22902;-90
2021/07/18 07:32:32;;;;;;;19.37;15.25;;;;;;;30.41;60.79;99224.75;4363680;32;20129;-90
2021/07/18 07:34:57;;;;;;;19.52;15.07;;;;;;;30.54;60.80;99225.75;4363478;32;20090;-90
2021/07/18 07:37:24;;;;;;;20.55;14.77;;;;;;;30.58;60.80;99226.19;4350392;32;20171;-90
2021/07/18 07:39:53;;;;;;;16.92;14.40;;;;;;;30.82;60.80;99238.47;4375647;32;20125;-90
2021/07/18 07:42:19;;;;;;;19.58;13.95;;;;;;;31.03;60.82;99237.63;4363299;32;20083;-90
2021/07/18 07:44:45;;;;;;;20.83;13.73;;;;;;;30.96;60.82;99239.41;4377494;32;20082;-90
2021/07/18 07:47:10;;;;;;;19.55;12.95;;;;;;;31.03;60.83;99238.47;4363597;32;20129;-91
2021/07/18 07:49:36;;;;;;;16.52;11.73;;;;;;;31.02;60.83;99241.34;4375822;32;20490;-90
2021/07/18 07:52:01;;;;;;;18.42;11.68;;;;;;;30.96;60.82;99242.09;4350969;32;20333;-91
2021/07/18 07:54:26;;;;;;;16.75;10.73;;;;;;;31.07;60.82;99250.50;4350787;32;20578;-91
2021/07/18 07:56:52;;;;;;;14.90;10.35;;;;;;;31.28;60.83;99257.75;4350577;32;20190;-90
2021/07/18 07:59:17;;;;;;;12.50;10.05;;;;;;;31.16;60.82;99272.69;4357799;32;22844;-90
2021/07/18 08:01:43;;;;;;;17.00;10.70;;;;;;;31.07;60.82;99280.06;4358202;32;20118;-90
2021/07/18 08:04:08;;;;;;;13.18;11.18;;;;;;;30.99;60.82;99276.66;4358408;32;20826;-91
2021/07/18 08:06:33;;;;;;;15.27;10.68;;;;;;;31.10;60.83;99289.59;4345532;33;20207;-90
2021/07/18 08:08:59;;;;;;;21.52;11.70;;;;;;;31.05;60.83;99298.25;4358315;32;20147;-91
2021/07/18 08:11:24;;;;;;;16.02;11.10;;;;;;;30.90;60.82;99312.75;4346012;33;20195;-91
2021/07/18 08:13:50;;;;;;;19.35;11.88;;;;;;;30.78;60.82;99313.25;4345858;33;20139;-92
2021/07/18 08:16:15;;;;;;;21.10;13.05;;;;;;;30.56;60.80;99319.56;4358358;32;20163;-91
2021/07/18 08:18:40;;;;;;;15.65;12.65;;;;;;;30.28;60.78;99314.03;4358467;32;20135;-91
2021/07/18 08:21:06;;;;;;;20.50;14.20;;;;;;;30.14;60.78;99310.34;4358165;32;20114;-90
2021/07/18 08:23:31;;;;;;;18.37;15.25;;;;;;;29.98;60.78;99305.09;4357907;32;28044;-91
2021/07/18 08:25:57;;;;;;;23.38;15.45;;;;;;;29.68;60.76;99296.22;4358252;32;20634;-91
2021/07/18 08:28:24;;;;;;;20.00;16.75;;;;;;;29.84;60.77;99303.28;4358212;32;20521;-90
2021/07/18 08:30:49;;;;;;;21.33;16.35;;;;;;;29.82;60.78;99298.09;4358219;32;20547;-91
2021/07/18 08:33:15;;;;;;;20.48;15.40;;;;;;;29.74;60.77;99292.78;4358153;32;20095;-90
2021/07/18 08:35:40;;;;;;;20.05;16.15;;;;;;;29.64;60.76;99292.22;4357790;32;20198;-91
2021/07/18 08:38:06;;;;;;;24.95;15.55;;;;;;;29.74;60.77;99282.06;4345935;33;21041;-91
2021/07/18 08:40:36;;;;;;;19.42;14.57;;;;;;;29.51;60.76;99275.91;4370806;32;20064;-91
2021/07/18 08:43:02;;;;;;;23.70;14.43;;;;;;;29.45;60.75;99274.78;4358200;32;20459;-90
2021/07/18 08:45:28;;;;;;;19.65;14.23;;;;;;;29.46;60.76;99268.41;4345304;32;20111;-89
2021/07/18 08:47:53;;;;;;;15.50;13.57;;;;;;;29.51;60.76;99270.53;4370098;32;20134;-92
2021/07/18 08:50:18;;;;;;;17.75;13.40;;;;;;;29.31;60.74;99270.19;4357956;32;20112;-90
2021/07/18 08:52:57;;;;;;;19.08;13.30;;;;;;;28.87;60.73;99268.22;4357891;32;20142;-90
2021/07/18 08:55:23;;;;;;;17.55;11.95;;;;;;;28.98;60.73;99267.78;4357142;32;20126;-90
2021/07/18 08:57:49;;;;;;;20.05;12.43;;;;;;;29.10;60.74;99262.81;4369978;32;20473;-89
2021/07/18 09:00:15;;;;;;;18.75;12.15;;;;;;;28.70;60.72;99262.06;4350543;32;20090;-91
2021/07/18 09:02:40;;;;;;;15.55;13.48;;;;;;;28.85;60.72;99262.16;4350286;32;20086;-90
2021/07/18 09:05:06;;;;;;;14.95;12.05;;;;;;;29.01;60.74;99269.25;4362451;32;20114;-91
2021/07/18 09:08:01;;;;;;;16.52;12.48;;;;;;;29.11;60.74;99266.34;4362509;32;20126;-89
2021/07/18 09:10:29;;;;;;;16.70;12.10;;;;;;;29.20;60.75;99267.94;4364801;32;20098;-89
2021/07/18 09:13:20;;;;;;;24.80;13.23;;;;;;;29.32;60.74;99264.63;4376467;32;20403;-89
2021/07/18 09:15:46;;;;;;;22.55;13.23;;;;;;;29.12;60.74;99266.19;4359266;32;20098;-89
2021/07/18 09:18:21;;;;;;;18.83;13.40;;;;;;;28.99;60.73;99269.44;4361576;32;20115;-90
2021/07/18 09:20:48;;;;;;;18.60;13.23;;;;;;;28.79;60.73;99268.22;4374054;32;20117;-90
2021/07/18 09:23:18;;;;;;;16.23;13.32;;;;;;;28.85;60.72;99256.81;4361739;32;20106;-89
2021/07/18 09:25:44;;;;;;;;;;;;;;;28.96;60.73;99255.56;4375709;32;20138;-89
2021/07/18 09:28:13;;;;;;;19.05;13.40;;;;;;;29.14;60.74;99266.81;4375420;32;20004;-89
2021/07/18 09:30:39;;;;;;;13.52;10.13;;;;;;;29.23;60.74;99265.75;4361434;32;20399;-90
2021/07/18 09:33:04;;;;;;;17.55;11.35;;;;;;;29.04;60.73;99264.38;4361541;32;20111;-91
2021/07/18 09:35:29;;;;;;;13.90;10.88;;;;;;;29.41;60.74;99265.41;4348975;32;22960;-89
2021/07/18 09:37:55;;;;;;;13.52;11.05;;;;;;;29.31;60.74;99254.94;4375592;32;20139;-90
2021/07/18 09:40:22;;;;;;;15.65;12.45;;;;;;;29.34;60.75;99259.97;4349897;32;20098;-89
2021/07/18 09:42:56;;;;;;;15.70;11.63;;;;;;;29.33;60.75;99258.25;4349741;32;20091;-90
2021/07/18 09:45:31;;;;;;;14.95;10.95;;;;;;;29.45;60.75;99258.72;4362993;32;20103;-90
2021/07/18 09:48:03;;;;;;;13.95;10.95;;;;;;;29.34;60.75;99267.16;4351306;32;20180;-90
2021/07/18 09:50:31;;;;;;;14.98;9.77;;;;;;;29.18;60.75;99273.50;4364110;32;20636;-90
2021/07/18 09:53:27;;;;;;;17.40;10.40;;;;;;;29.20;60.74;99270.63;4352063;32;20474;-88
2021/07/18 09:56:04;;;;;;;13.27;10.63;;;;;;;29.13;60.74;99283.09;4377264;32;20593;-91
2021/07/18 09:58:30;;;;;;;17.60;12.15;;;;;;;29.47;60.75;99286.16;4351316;32;20144;-89
2021/07/18 10:00:56;;;;;;;12.75;11.38;;;;;;;29.66;60.77;99300.91;4378018;32;20098;-90
2021/07/18 10:03:22;;;;;;;13.27;11.23;;;;;;;29.71;60.76;99295.84;4363834;32;20591;-91
2021/07/18 10:06:06;;;;;;;17.12;10.93;;;;;;;29.74;60.77;99306.19;4364567;32;20158;-92
2021/07/18 10:08:31;;;;;;;11.68;9.52;;;;;;;29.85;60.77;99295.03;4377701;32;20554;-90
2021/07/18 10:10:57;;;;;;;14.65;10.45;;;;;;;29.82;60.77;99302.63;4364116;32;20098;-91
2021/07/18 10:13:22;;;;;;;14.70;9.57;;;;;;;29.84;60.77;99305.94;4363908;32;29702;-93
2021/07/18 10:15:47;;;;;;;11.98;10.23;;;;;;;29.84;60.78;99303.28;4352891;32;20107;-93
2021/07/18 10:18:13;;;;;;;16.60;10.88;;;;;;;29.80;60.76;99301.94;4360321;32;20102;-96
2021/07/18 10:20:38;;;;;;;16.27;9.95;;;;;;;29.88;60.77;99285.78;4361637;32;20126;-96
2021/07/18 10:23:04;;;;;;;13.02;10.27;;;;;;;29.75;60.77;99283.72;4364671;32;20464;-96
2021/07/18 10:25:30;;;;;;;16.83;10.50;;;;;;;29.83;60.77;99285.50;4363013;32;20122;-95
2021/07/18 10:27:56;;;;;;;13.77;10.70;;;;;;;29.78;60.77;99283.34;4377765;32;20079;-95
2021/07/18 10:30:21;;;;;;;18.73;11.95;;;;;;;29.62;60.76;99278.16;4362105;32;20182;-94
2021/07/18 10:32:48;;;;;;;16.05;11.30;;;;;;;29.42;60.76;99268.94;4361324;32;20099;-95
2021/07/18 10:35:28;;;;;;;23.62;11.65;;;;;;;29.31;60.74;99254.94;4363698;32;20091;-96
2021/07/18 10:38:44;;;;;;;17.45;11.68;;;;;;;29.38;60.75;99256.91;4380231;32;20058;-96
2021/07/18 10:41:40;;;;;;;17.00;11.18;;;;;;;29.07;60.73;99240.91;4377602;32;20090;-96
2021/07/18 10:44:16;;;;;;;23.02;12.30;;;;;;;28.46;60.70;99242.66;4371437;32;20082;-96
2021/07/18 10:47:02;;;;;;;15.77;11.07;;;;;;;28.30;60.70;99244.38;4362898;32;20118;-96
2021/07/18 10:49:58;;;;;;;20.23;11.77;;;;;;;28.55;60.72;99242.41;4386606;32;20162;-94
2021/07/18 10:52:31;;;;;;;18.08;10.95;;;;;;;28.64;60.72;99225.31;4472753;27;20105;-96
2021/07/18 10:55:47;;;;;;;23.05;13.50;;;;;;;28.63;60.72;99220.12;4376444;32;20130;-93
2021/07/18 10:58:53;;;;;;;18.67;10.70;;;;;;;28.51;60.70;99224.19;4392909;32;20099;-96
2021/07/18 11:01:42;;;;;;;16.37;9.88;;;;;;;28.34;60.70;99216.25;4391522;32;20092;-96
2021/07/18 11:04:28;;;;;;;;;;;;;;;28.29;60.71;99215.94;4388582;32;20058;-96
2021/07/18 11:07:18;;;;;;;21.08;10.25;;;;;;;28.02;60.68;99208.37;4369031;32;19981;-96
2021/07/18 11:09:50;;;;;;;20.50;10.35;;;;;;;28.11;60.68;99194.75;4383811;32;20115;-96
2021/07/18 11:12:35;;;;;;;22.65;10.98;;;;;;;27.92;60.68;99191.66;4372373;32;20099;-96
2021/07/18 11:15:34;;;;;;;15.60;10.38;;;;;;;28.06;60.67;99194.47;4383266;32;20109;-96
2021/07/18 11:18:03;;;;;;;14.50;10.60;;;;;;;27.84;60.68;99187.19;4380812;32;20087;-96